sensor_id;sensor_type;location;lat;lon;timestamp;P1;durP1;ratioP1;P2;durP2;ratioP2
12972;SDS011;6551;51.056;9.466;2023-03-15T00:01:12;12.03;;;2.43;;
12972;SDS011;6551;51.056;9.466;2023-03-15T00:03:44;7.30;;;2.27;;
12972;SDS011;6551;51.056;9.466;2023-03-15T00:06:12;7.50;;;1.37;;
12972;SDS011;6551;51.056;9.466;2023-03-15T00:08:39;8.67;;;1.53;;
12972;SDS011;6551;51.056;9.466;2023-03-15T00:11:05;12.77;;;1.80;;
12972;SDS011;6551;51.056;9.466;2023-03-15T00:13:31;9.53;;;1.30;;
12972;SDS011;6551;51.056;9.466;2023-03-15T00:15:59;8.50;;;1.40;;
12972;SDS011;6551;51.056;9.466;2023-03-15T00:18:29;11.63;;;1.80;;
12972;SDS011;6551;51.056;9.466;2023-03-15T00:20:56;10.53;;;1.60;;
12972;SDS011;6551;51.056;9.466;2023-03-15T00:23:23;9.03;;;1.73;;
12972;SDS011;6551;51.056;9.466;2023-03-15T00:25:49;8.67;;;1.80;;
12972;SDS011;6551;51.056;9.466;2023-03-15T00:28:18;8.10;;;1.60;;
12972;SDS011;6551;51.056;9.466;2023-03-15T00:30:45;10.70;;;1.77;;
12972;SDS011;6551;51.056;9.466;2023-03-15T00:33:11;12.03;;;2.13;;
12972;SDS011;6551;51.056;9.466;2023-03-15T00:35:38;8.47;;;2.17;;
12972;SDS011;6551;51.056;9.466;2023-03-15T00:38:06;8.63;;;3.10;;
12972;SDS011;6551;51.056;9.466;2023-03-15T00:40:32;8.40;;;2.30;;
12972;SDS011;6551;51.056;9.466;2023-03-15T00:43:00;9.47;;;2.40;;
12972;SDS011;6551;51.056;9.466;2023-03-15T00:45:26;10.20;;;2.20;;
12972;SDS011;6551;51.056;9.466;2023-03-15T00:47:53;6.83;;;1.90;;
12972;SDS011;6551;51.056;9.466;2023-03-15T00:50:20;12.93;;;1.93;;
12972;SDS011;6551;51.056;9.466;2023-03-15T00:52:47;11.10;;;2.57;;
12972;SDS011;6551;51.056;9.466;2023-03-15T00:55:16;12.57;;;2.07;;
12972;SDS011;6551;51.056;9.466;2023-03-15T00:57:44;3.57;;;1.30;;
12972;SDS011;6551;51.056;9.466;2023-03-15T01:00:12;9.80;;;1.77;;
12972;SDS011;6551;51.056;9.466;2023-03-15T01:02:41;5.27;;;1.77;;
12972;SDS011;6551;51.056;9.466;2023-03-15T01:05:07;7.07;;;1.97;;
12972;SDS011;6551;51.056;9.466;2023-03-15T01:07:34;7.00;;;1.60;;
12972;SDS011;6551;51.056;9.466;2023-03-15T01:10:00;9.13;;;2.10;;
12972;SDS011;6551;51.056;9.466;2023-03-15T01:12:29;12.53;;;2.47;;
12972;SDS011;6551;51.056;9.466;2023-03-15T01:14:58;7.03;;;1.73;;
12972;SDS011;6551;51.056;9.466;2023-03-15T01:17:27;8.73;;;2.57;;
12972;SDS011;6551;51.056;9.466;2023-03-15T01:19:54;6.23;;;1.97;;
12972;SDS011;6551;51.056;9.466;2023-03-15T01:22:20;12.03;;;2.37;;
12972;SDS011;6551;51.056;9.466;2023-03-15T01:24:45;10.37;;;2.13;;
12972;SDS011;6551;51.056;9.466;2023-03-15T01:27:11;12.23;;;2.00;;
12972;SDS011;6551;51.056;9.466;2023-03-15T01:29:37;11.93;;;2.53;;
12972;SDS011;6551;51.056;9.466;2023-03-15T01:32:03;9.87;;;2.20;;
12972;SDS011;6551;51.056;9.466;2023-03-15T01:34:30;8.83;;;2.47;;
12972;SDS011;6551;51.056;9.466;2023-03-15T01:36:57;13.70;;;3.33;;
12972;SDS011;6551;51.056;9.466;2023-03-15T01:39:24;9.63;;;2.00;;
12972;SDS011;6551;51.056;9.466;2023-03-15T01:41:50;11.50;;;1.90;;
12972;SDS011;6551;51.056;9.466;2023-03-15T01:44:17;12.57;;;2.10;;
12972;SDS011;6551;51.056;9.466;2023-03-15T01:46:44;6.50;;;1.50;;
12972;SDS011;6551;51.056;9.466;2023-03-15T01:49:10;12.60;;;2.03;;
12972;SDS011;6551;51.056;9.466;2023-03-15T01:52:04;10.40;;;1.80;;
12972;SDS011;6551;51.056;9.466;2023-03-15T01:54:48;11.17;;;1.80;;
12972;SDS011;6551;51.056;9.466;2023-03-15T01:57:22;7.63;;;1.47;;
12972;SDS011;6551;51.056;9.466;2023-03-15T02:00:06;6.17;;;2.30;;
12972;SDS011;6551;51.056;9.466;2023-03-15T02:02:39;5.37;;;1.43;;
12972;SDS011;6551;51.056;9.466;2023-03-15T02:05:11;10.53;;;2.00;;
12972;SDS011;6551;51.056;9.466;2023-03-15T02:07:44;12.03;;;2.40;;
12972;SDS011;6551;51.056;9.466;2023-03-15T02:10:14;10.27;;;2.20;;
12972;SDS011;6551;51.056;9.466;2023-03-15T02:12:49;7.07;;;2.00;;
12972;SDS011;6551;51.056;9.466;2023-03-15T02:15:18;11.53;;;2.47;;
12972;SDS011;6551;51.056;9.466;2023-03-15T02:17:45;7.40;;;1.90;;
12972;SDS011;6551;51.056;9.466;2023-03-15T02:23:12;10.73;;;2.03;;
12972;SDS011;6551;51.056;9.466;2023-03-15T02:28:59;15.60;;;1.70;;
12972;SDS011;6551;51.056;9.466;2023-03-15T02:31:27;9.63;;;1.80;;
12972;SDS011;6551;51.056;9.466;2023-03-15T02:33:54;11.43;;;2.00;;
12972;SDS011;6551;51.056;9.466;2023-03-15T02:36:25;10.83;;;1.80;;
12972;SDS011;6551;51.056;9.466;2023-03-15T02:39:15;8.63;;;1.70;;
12972;SDS011;6551;51.056;9.466;2023-03-15T02:41:56;8.50;;;2.03;;
12972;SDS011;6551;51.056;9.466;2023-03-15T02:44:43;6.50;;;1.60;;
12972;SDS011;6551;51.056;9.466;2023-03-15T02:47:13;13.13;;;2.50;;
12972;SDS011;6551;51.056;9.466;2023-03-15T02:49:52;8.77;;;1.90;;
12972;SDS011;6551;51.056;9.466;2023-03-15T02:52:18;7.10;;;1.87;;
12972;SDS011;6551;51.056;9.466;2023-03-15T02:54:48;9.70;;;2.10;;
12972;SDS011;6551;51.056;9.466;2023-03-15T02:57:15;9.23;;;2.33;;
12972;SDS011;6551;51.056;9.466;2023-03-15T02:59:43;10.73;;;1.93;;
12972;SDS011;6551;51.056;9.466;2023-03-15T03:02:09;12.47;;;1.97;;
12972;SDS011;6551;51.056;9.466;2023-03-15T03:04:37;7.37;;;2.50;;
12972;SDS011;6551;51.056;9.466;2023-03-15T03:07:04;13.33;;;2.90;;
12972;SDS011;6551;51.056;9.466;2023-03-15T03:09:32;10.23;;;2.27;;
12972;SDS011;6551;51.056;9.466;2023-03-15T03:11:59;15.37;;;3.03;;
12972;SDS011;6551;51.056;9.466;2023-03-15T03:14:25;15.23;;;2.87;;
12972;SDS011;6551;51.056;9.466;2023-03-15T03:16:53;9.67;;;1.93;;
12972;SDS011;6551;51.056;9.466;2023-03-15T03:19:19;11.83;;;2.10;;
12972;SDS011;6551;51.056;9.466;2023-03-15T03:21:49;7.20;;;2.00;;
12972;SDS011;6551;51.056;9.466;2023-03-15T03:24:20;13.40;;;2.07;;
12972;SDS011;6551;51.056;9.466;2023-03-15T03:26:46;9.77;;;2.10;;
12972;SDS011;6551;51.056;9.466;2023-03-15T03:29:12;9.50;;;1.90;;
12972;SDS011;6551;51.056;9.466;2023-03-15T03:31:41;11.67;;;2.23;;
12972;SDS011;6551;51.056;9.466;2023-03-15T03:34:10;8.67;;;2.00;;
12972;SDS011;6551;51.056;9.466;2023-03-15T03:36:39;9.37;;;2.50;;
12972;SDS011;6551;51.056;9.466;2023-03-15T03:39:07;9.90;;;1.90;;
12972;SDS011;6551;51.056;9.466;2023-03-15T03:41:33;7.57;;;1.60;;
12972;SDS011;6551;51.056;9.466;2023-03-15T03:44:01;12.80;;;2.73;;
12972;SDS011;6551;51.056;9.466;2023-03-15T03:46:26;6.70;;;1.97;;
12972;SDS011;6551;51.056;9.466;2023-03-15T03:48:55;6.63;;;2.37;;
12972;SDS011;6551;51.056;9.466;2023-03-15T03:51:20;12.73;;;2.60;;
12972;SDS011;6551;51.056;9.466;2023-03-15T03:53:46;13.07;;;2.53;;
12972;SDS011;6551;51.056;9.466;2023-03-15T03:56:12;9.30;;;2.50;;
12972;SDS011;6551;51.056;9.466;2023-03-15T03:58:37;9.83;;;2.63;;
12972;SDS011;6551;51.056;9.466;2023-03-15T04:01:03;5.73;;;2.10;;
12972;SDS011;6551;51.056;9.466;2023-03-15T04:03:31;8.67;;;2.07;;
12972;SDS011;6551;51.056;9.466;2023-03-15T04:06:00;8.77;;;2.50;;
12972;SDS011;6551;51.056;9.466;2023-03-15T04:08:27;8.90;;;1.80;;
12972;SDS011;6551;51.056;9.466;2023-03-15T04:10:55;6.77;;;2.33;;
12972;SDS011;6551;51.056;9.466;2023-03-15T04:13:22;7.60;;;2.37;;
12972;SDS011;6551;51.056;9.466;2023-03-15T04:15:49;9.97;;;2.33;;
12972;SDS011;6551;51.056;9.466;2023-03-15T04:18:16;17.23;;;2.27;;
12972;SDS011;6551;51.056;9.466;2023-03-15T04:20:43;13.10;;;2.60;;
12972;SDS011;6551;51.056;9.466;2023-03-15T04:23:12;9.97;;;2.53;;
12972;SDS011;6551;51.056;9.466;2023-03-15T04:25:40;10.23;;;2.20;;
12972;SDS011;6551;51.056;9.466;2023-03-15T04:28:06;8.63;;;2.17;;
12972;SDS011;6551;51.056;9.466;2023-03-15T04:30:35;9.70;;;2.00;;
12972;SDS011;6551;51.056;9.466;2023-03-15T04:33:01;8.23;;;1.93;;
12972;SDS011;6551;51.056;9.466;2023-03-15T04:35:29;14.20;;;2.47;;
12972;SDS011;6551;51.056;9.466;2023-03-15T04:37:59;11.43;;;2.70;;
12972;SDS011;6551;51.056;9.466;2023-03-15T04:40:25;10.77;;;2.73;;
12972;SDS011;6551;51.056;9.466;2023-03-15T04:42:52;11.57;;;2.20;;
12972;SDS011;6551;51.056;9.466;2023-03-15T04:45:25;10.80;;;2.20;;
12972;SDS011;6551;51.056;9.466;2023-03-15T04:47:54;13.40;;;2.60;;
12972;SDS011;6551;51.056;9.466;2023-03-15T04:50:21;9.97;;;2.20;;
12972;SDS011;6551;51.056;9.466;2023-03-15T04:52:49;11.37;;;3.03;;
12972;SDS011;6551;51.056;9.466;2023-03-15T04:55:16;10.67;;;2.87;;
12972;SDS011;6551;51.056;9.466;2023-03-15T04:57:42;6.83;;;2.50;;
12972;SDS011;6551;51.056;9.466;2023-03-15T05:00:09;11.07;;;2.83;;
12972;SDS011;6551;51.056;9.466;2023-03-15T05:02:36;11.30;;;2.63;;
12972;SDS011;6551;51.056;9.466;2023-03-15T05:05:06;11.23;;;3.97;;
12972;SDS011;6551;51.056;9.466;2023-03-15T05:07:33;11.43;;;2.40;;
12972;SDS011;6551;51.056;9.466;2023-03-15T05:10:01;14.90;;;3.17;;
12972;SDS011;6551;51.056;9.466;2023-03-15T05:12:30;6.63;;;2.80;;
12972;SDS011;6551;51.056;9.466;2023-03-15T05:14:59;9.97;;;2.40;;
12972;SDS011;6551;51.056;9.466;2023-03-15T05:17:26;12.93;;;3.37;;
12972;SDS011;6551;51.056;9.466;2023-03-15T05:19:52;14.97;;;3.63;;
12972;SDS011;6551;51.056;9.466;2023-03-15T05:22:18;13.00;;;2.63;;
12972;SDS011;6551;51.056;9.466;2023-03-15T05:24:45;8.60;;;2.50;;
12972;SDS011;6551;51.056;9.466;2023-03-15T05:27:10;9.90;;;2.50;;
12972;SDS011;6551;51.056;9.466;2023-03-15T05:29:37;10.17;;;3.10;;
12972;SDS011;6551;51.056;9.466;2023-03-15T05:32:03;10.27;;;3.00;;
12972;SDS011;6551;51.056;9.466;2023-03-15T05:34:30;9.37;;;3.03;;
12972;SDS011;6551;51.056;9.466;2023-03-15T05:36:58;9.33;;;3.40;;
12972;SDS011;6551;51.056;9.466;2023-03-15T05:39:25;7.27;;;3.30;;
12972;SDS011;6551;51.056;9.466;2023-03-15T05:41:52;16.73;;;3.93;;
12972;SDS011;6551;51.056;9.466;2023-03-15T05:44:18;10.57;;;3.83;;
12972;SDS011;6551;51.056;9.466;2023-03-15T05:46:43;8.70;;;3.50;;
12972;SDS011;6551;51.056;9.466;2023-03-15T05:49:09;12.03;;;3.70;;
12972;SDS011;6551;51.056;9.466;2023-03-15T05:51:36;13.93;;;3.97;;
12972;SDS011;6551;51.056;9.466;2023-03-15T05:54:01;8.37;;;4.00;;
12972;SDS011;6551;51.056;9.466;2023-03-15T05:56:29;8.90;;;4.57;;
12972;SDS011;6551;51.056;9.466;2023-03-15T05:58:55;11.93;;;3.57;;
12972;SDS011;6551;51.056;9.466;2023-03-15T06:01:23;11.60;;;3.67;;
12972;SDS011;6551;51.056;9.466;2023-03-15T06:03:50;10.33;;;3.33;;
12972;SDS011;6551;51.056;9.466;2023-03-15T06:06:16;10.73;;;3.40;;
12972;SDS011;6551;51.056;9.466;2023-03-15T06:08:41;10.30;;;3.63;;
12972;SDS011;6551;51.056;9.466;2023-03-15T06:11:07;8.87;;;2.87;;
12972;SDS011;6551;51.056;9.466;2023-03-15T06:13:35;6.20;;;3.30;;
12972;SDS011;6551;51.056;9.466;2023-03-15T06:16:04;8.93;;;4.30;;
12972;SDS011;6551;51.056;9.466;2023-03-15T06:18:31;10.17;;;3.93;;
12972;SDS011;6551;51.056;9.466;2023-03-15T06:20:57;7.70;;;2.93;;
12972;SDS011;6551;51.056;9.466;2023-03-15T06:23:24;8.83;;;3.80;;
12972;SDS011;6551;51.056;9.466;2023-03-15T06:25:49;6.50;;;3.27;;
12972;SDS011;6551;51.056;9.466;2023-03-15T06:28:15;5.47;;;2.67;;
12972;SDS011;6551;51.056;9.466;2023-03-15T06:30:42;5.10;;;3.17;;
12972;SDS011;6551;51.056;9.466;2023-03-15T06:33:08;5.33;;;3.73;;
12972;SDS011;6551;51.056;9.466;2023-03-15T06:35:33;5.20;;;2.63;;
12972;SDS011;6551;51.056;9.466;2023-03-15T06:38:00;8.00;;;3.00;;
12972;SDS011;6551;51.056;9.466;2023-03-15T06:40:26;6.23;;;2.90;;
12972;SDS011;6551;51.056;9.466;2023-03-15T06:42:52;4.63;;;2.83;;
12972;SDS011;6551;51.056;9.466;2023-03-15T06:45:19;6.23;;;3.33;;
12972;SDS011;6551;51.056;9.466;2023-03-15T06:47:45;8.47;;;4.70;;
12972;SDS011;6551;51.056;9.466;2023-03-15T06:50:11;6.77;;;2.87;;
12972;SDS011;6551;51.056;9.466;2023-03-15T06:52:36;3.63;;;2.93;;
12972;SDS011;6551;51.056;9.466;2023-03-15T06:55:02;7.87;;;3.70;;
12972;SDS011;6551;51.056;9.466;2023-03-15T06:57:30;5.23;;;4.27;;
12972;SDS011;6551;51.056;9.466;2023-03-15T06:59:56;6.10;;;3.20;;
12972;SDS011;6551;51.056;9.466;2023-03-15T07:02:21;6.67;;;4.00;;
12972;SDS011;6551;51.056;9.466;2023-03-15T07:04:48;3.33;;;2.80;;
12972;SDS011;6551;51.056;9.466;2023-03-15T07:07:15;6.10;;;4.63;;
12972;SDS011;6551;51.056;9.466;2023-03-15T07:09:42;5.37;;;3.63;;
12972;SDS011;6551;51.056;9.466;2023-03-15T07:12:11;8.07;;;4.67;;
12972;SDS011;6551;51.056;9.466;2023-03-15T07:14:37;6.93;;;4.33;;
12972;SDS011;6551;51.056;9.466;2023-03-15T07:17:02;12.10;;;5.40;;
12972;SDS011;6551;51.056;9.466;2023-03-15T07:19:28;11.37;;;6.70;;
12972;SDS011;6551;51.056;9.466;2023-03-15T07:21:54;9.50;;;6.63;;
12972;SDS011;6551;51.056;9.466;2023-03-15T07:24:19;10.90;;;6.93;;
12972;SDS011;6551;51.056;9.466;2023-03-15T07:26:45;8.13;;;3.57;;
12972;SDS011;6551;51.056;9.466;2023-03-15T07:29:12;6.40;;;3.40;;
12972;SDS011;6551;51.056;9.466;2023-03-15T07:31:37;8.17;;;4.77;;
12972;SDS011;6551;51.056;9.466;2023-03-15T07:34:03;3.70;;;2.80;;
12972;SDS011;6551;51.056;9.466;2023-03-15T07:36:30;5.27;;;3.27;;
12972;SDS011;6551;51.056;9.466;2023-03-15T07:38:57;3.43;;;2.93;;
12972;SDS011;6551;51.056;9.466;2023-03-15T07:41:25;4.63;;;4.10;;
12972;SDS011;6551;51.056;9.466;2023-03-15T07:43:51;5.50;;;3.60;;
12972;SDS011;6551;51.056;9.466;2023-03-15T07:46:16;7.80;;;5.70;;
12972;SDS011;6551;51.056;9.466;2023-03-15T07:48:42;10.80;;;6.30;;
12972;SDS011;6551;51.056;9.466;2023-03-15T07:51:13;11.37;;;6.40;;
12972;SDS011;6551;51.056;9.466;2023-03-15T07:53:39;5.33;;;3.37;;
12972;SDS011;6551;51.056;9.466;2023-03-15T07:56:04;3.90;;;3.10;;
12972;SDS011;6551;51.056;9.466;2023-03-15T07:58:31;4.07;;;3.47;;
12972;SDS011;6551;51.056;9.466;2023-03-15T08:00:58;9.40;;;6.00;;
12972;SDS011;6551;51.056;9.466;2023-03-15T08:03:25;5.20;;;3.73;;
12972;SDS011;6551;51.056;9.466;2023-03-15T08:05:52;6.10;;;4.40;;
12972;SDS011;6551;51.056;9.466;2023-03-15T08:08:18;7.23;;;4.40;;
12972;SDS011;6551;51.056;9.466;2023-03-15T08:10:46;6.87;;;3.60;;
12972;SDS011;6551;51.056;9.466;2023-03-15T08:13:12;5.10;;;3.20;;
12972;SDS011;6551;51.056;9.466;2023-03-15T08:15:38;4.13;;;3.67;;
12972;SDS011;6551;51.056;9.466;2023-03-15T08:18:04;4.57;;;3.57;;
12972;SDS011;6551;51.056;9.466;2023-03-15T08:20:32;6.67;;;4.10;;
12972;SDS011;6551;51.056;9.466;2023-03-15T08:22:58;7.07;;;3.87;;
12972;SDS011;6551;51.056;9.466;2023-03-15T08:25:23;6.10;;;3.40;;
12972;SDS011;6551;51.056;9.466;2023-03-15T08:27:51;4.60;;;3.47;;
12972;SDS011;6551;51.056;9.466;2023-03-15T08:30:18;5.17;;;3.90;;
12972;SDS011;6551;51.056;9.466;2023-03-15T08:32:45;4.83;;;3.77;;
12972;SDS011;6551;51.056;9.466;2023-03-15T08:35:13;5.10;;;4.00;;
12972;SDS011;6551;51.056;9.466;2023-03-15T08:37:42;5.10;;;3.47;;
12972;SDS011;6551;51.056;9.466;2023-03-15T08:40:11;5.10;;;3.40;;
12972;SDS011;6551;51.056;9.466;2023-03-15T08:42:43;5.07;;;3.17;;
12972;SDS011;6551;51.056;9.466;2023-03-15T08:45:09;3.80;;;3.00;;
12972;SDS011;6551;51.056;9.466;2023-03-15T08:47:36;3.97;;;2.93;;
12972;SDS011;6551;51.056;9.466;2023-03-15T08:50:03;4.10;;;2.63;;
12972;SDS011;6551;51.056;9.466;2023-03-15T08:52:33;6.27;;;4.07;;
12972;SDS011;6551;51.056;9.466;2023-03-15T08:55:00;6.77;;;4.43;;
12972;SDS011;6551;51.056;9.466;2023-03-15T08:57:26;8.43;;;5.10;;
12972;SDS011;6551;51.056;9.466;2023-03-15T08:59:54;5.63;;;4.60;;
12972;SDS011;6551;51.056;9.466;2023-03-15T09:02:21;6.97;;;5.07;;
12972;SDS011;6551;51.056;9.466;2023-03-15T09:04:47;6.43;;;5.20;;
12972;SDS011;6551;51.056;9.466;2023-03-15T09:07:13;6.43;;;4.93;;
12972;SDS011;6551;51.056;9.466;2023-03-15T09:09:39;5.37;;;3.50;;
12972;SDS011;6551;51.056;9.466;2023-03-15T09:12:05;5.53;;;3.80;;
12972;SDS011;6551;51.056;9.466;2023-03-15T09:14:32;5.47;;;3.77;;
12972;SDS011;6551;51.056;9.466;2023-03-15T09:17:00;4.43;;;3.30;;
12972;SDS011;6551;51.056;9.466;2023-03-15T09:19:26;5.00;;;3.07;;
12972;SDS011;6551;51.056;9.466;2023-03-15T09:21:53;3.40;;;2.57;;
12972;SDS011;6551;51.056;9.466;2023-03-15T09:24:19;4.33;;;2.67;;
12972;SDS011;6551;51.056;9.466;2023-03-15T09:26:44;4.33;;;2.67;;
12972;SDS011;6551;51.056;9.466;2023-03-15T09:29:10;3.80;;;1.70;;
12972;SDS011;6551;51.056;9.466;2023-03-15T09:31:36;3.60;;;2.13;;
12972;SDS011;6551;51.056;9.466;2023-03-15T09:34:03;3.97;;;2.10;;
12972;SDS011;6551;51.056;9.466;2023-03-15T09:36:31;3.30;;;1.60;;
12972;SDS011;6551;51.056;9.466;2023-03-15T09:38:59;2.70;;;1.60;;
12972;SDS011;6551;51.056;9.466;2023-03-15T09:41:44;1.70;;;1.30;;
12972;SDS011;6551;51.056;9.466;2023-03-15T09:54:08;4.17;;;1.73;;
12972;SDS011;6551;51.056;9.466;2023-03-15T09:56:59;2.00;;;1.70;;
12972;SDS011;6551;51.056;9.466;2023-03-15T09:59:45;3.57;;;2.00;;
12972;SDS011;6551;51.056;9.466;2023-03-15T10:02:24;7.33;;;1.90;;
12972;SDS011;6551;51.056;9.466;2023-03-15T10:04:55;4.03;;;1.73;;
12972;SDS011;6551;51.056;9.466;2023-03-15T10:07:48;3.50;;;1.33;;
12972;SDS011;6551;51.056;9.466;2023-03-15T10:10:20;6.30;;;1.60;;
12972;SDS011;6551;51.056;9.466;2023-03-15T10:12:57;3.07;;;1.37;;
12972;SDS011;6551;51.056;9.466;2023-03-15T10:16:01;6.33;;;3.03;;
12972;SDS011;6551;51.056;9.466;2023-03-15T10:19:24;2.93;;;1.80;;
12972;SDS011;6551;51.056;9.466;2023-03-15T10:22:33;2.63;;;1.13;;
12972;SDS011;6551;51.056;9.466;2023-03-15T10:25:14;2.47;;;0.90;;
12972;SDS011;6551;51.056;9.466;2023-03-15T10:28:01;5.30;;;1.70;;
12972;SDS011;6551;51.056;9.466;2023-03-15T10:30:48;3.90;;;1.30;;
12972;SDS011;6551;51.056;9.466;2023-03-15T10:33:23;4.10;;;1.40;;
12972;SDS011;6551;51.056;9.466;2023-03-15T10:35:57;3.87;;;1.50;;
12972;SDS011;6551;51.056;9.466;2023-03-15T10:38:27;2.63;;;0.90;;
12972;SDS011;6551;51.056;9.466;2023-03-15T10:40:54;2.73;;;1.40;;
12972;SDS011;6551;51.056;9.466;2023-03-15T10:46:10;5.83;;;1.53;;
12972;SDS011;6551;51.056;9.466;2023-03-15T10:48:53;7.77;;;1.07;;
12972;SDS011;6551;51.056;9.466;2023-03-15T10:51:38;3.87;;;0.73;;
12972;SDS011;6551;51.056;9.466;2023-03-15T10:56:56;6.60;;;3.37;;
12972;SDS011;6551;51.056;9.466;2023-03-15T11:00:00;6.03;;;2.20;;
12972;SDS011;6551;51.056;9.466;2023-03-15T11:02:47;2.63;;;1.57;;
12972;SDS011;6551;51.056;9.466;2023-03-15T11:05:16;5.67;;;1.70;;
12972;SDS011;6551;51.056;9.466;2023-03-15T11:07:53;2.93;;;0.97;;
12972;SDS011;6551;51.056;9.466;2023-03-15T11:10:27;4.70;;;1.50;;
12972;SDS011;6551;51.056;9.466;2023-03-15T11:15:37;5.73;;;2.00;;
12972;SDS011;6551;51.056;9.466;2023-03-15T11:18:15;2.67;;;1.03;;
12972;SDS011;6551;51.056;9.466;2023-03-15T11:20:48;6.80;;;1.90;;
12972;SDS011;6551;51.056;9.466;2023-03-15T11:23:19;3.73;;;1.33;;
12972;SDS011;6551;51.056;9.466;2023-03-15T11:25:54;6.20;;;2.10;;
12972;SDS011;6551;51.056;9.466;2023-03-15T11:28:27;4.90;;;0.73;;
12972;SDS011;6551;51.056;9.466;2023-03-15T11:30:58;3.93;;;1.00;;
12972;SDS011;6551;51.056;9.466;2023-03-15T11:36:59;3.70;;;1.10;;
12972;SDS011;6551;51.056;9.466;2023-03-15T11:45:50;3.50;;;1.00;;
12972;SDS011;6551;51.056;9.466;2023-03-15T11:51:05;8.73;;;1.20;;
12972;SDS011;6551;51.056;9.466;2023-03-15T11:53:46;6.60;;;1.37;;
12972;SDS011;6551;51.056;9.466;2023-03-15T11:56:54;5.53;;;1.33;;
12972;SDS011;6551;51.056;9.466;2023-03-15T11:59:40;4.97;;;1.40;;
12972;SDS011;6551;51.056;9.466;2023-03-15T12:04:46;11.57;;;3.33;;
12972;SDS011;6551;51.056;9.466;2023-03-15T12:07:27;6.70;;;2.13;;
12972;SDS011;6551;51.056;9.466;2023-03-15T12:13:05;7.57;;;2.50;;
12972;SDS011;6551;51.056;9.466;2023-03-15T12:15:46;7.57;;;2.27;;
12972;SDS011;6551;51.056;9.466;2023-03-15T12:18:13;8.53;;;2.57;;
12972;SDS011;6551;51.056;9.466;2023-03-15T12:20:48;8.80;;;3.10;;
12972;SDS011;6551;51.056;9.466;2023-03-15T12:23:37;10.47;;;3.70;;
12972;SDS011;6551;51.056;9.466;2023-03-15T12:34:49;3.73;;;1.70;;
12972;SDS011;6551;51.056;9.466;2023-03-15T12:45:36;3.47;;;0.80;;
12972;SDS011;6551;51.056;9.466;2023-03-15T12:50:58;6.03;;;1.70;;
12972;SDS011;6551;51.056;9.466;2023-03-15T12:53:39;7.07;;;3.53;;
12972;SDS011;6551;51.056;9.466;2023-03-15T12:59:03;5.30;;;1.60;;
12972;SDS011;6551;51.056;9.466;2023-03-15T13:01:40;4.20;;;1.27;;
12972;SDS011;6551;51.056;9.466;2023-03-15T13:04:07;9.67;;;1.30;;
12972;SDS011;6551;51.056;9.466;2023-03-15T13:06:43;5.13;;;1.10;;
12972;SDS011;6551;51.056;9.466;2023-03-15T13:12:48;5.13;;;1.50;;
12972;SDS011;6551;51.056;9.466;2023-03-15T13:15:44;7.57;;;1.90;;
12972;SDS011;6551;51.056;9.466;2023-03-15T13:18:49;6.70;;;1.50;;
12972;SDS011;6551;51.056;9.466;2023-03-15T13:21:51;5.37;;;1.30;;
12972;SDS011;6551;51.056;9.466;2023-03-15T13:25:08;5.67;;;2.00;;
12972;SDS011;6551;51.056;9.466;2023-03-15T13:27:53;4.73;;;1.50;;
12972;SDS011;6551;51.056;9.466;2023-03-15T13:30:41;4.03;;;1.50;;
12972;SDS011;6551;51.056;9.466;2023-03-15T13:33:30;6.30;;;1.90;;
12972;SDS011;6551;51.056;9.466;2023-03-15T13:36:03;3.87;;;1.30;;
12972;SDS011;6551;51.056;9.466;2023-03-15T13:38:43;4.40;;;1.40;;
12972;SDS011;6551;51.056;9.466;2023-03-15T13:43:47;4.03;;;1.40;;
12972;SDS011;6551;51.056;9.466;2023-03-15T13:46:17;4.33;;;1.67;;
12972;SDS011;6551;51.056;9.466;2023-03-15T13:48:48;8.37;;;3.93;;
12972;SDS011;6551;51.056;9.466;2023-03-15T13:57:05;6.00;;;1.73;;
12972;SDS011;6551;51.056;9.466;2023-03-15T14:05:43;4.70;;;1.50;;
12972;SDS011;6551;51.056;9.466;2023-03-15T14:11:14;4.33;;;1.47;;
12972;SDS011;6551;51.056;9.466;2023-03-15T14:13:51;4.23;;;1.43;;
12972;SDS011;6551;51.056;9.466;2023-03-15T14:16:28;1.87;;;1.17;;
12972;SDS011;6551;51.056;9.466;2023-03-15T14:21:59;5.83;;;1.10;;
12972;SDS011;6551;51.056;9.466;2023-03-15T14:24:41;1.90;;;0.90;;
12972;SDS011;6551;51.056;9.466;2023-03-15T14:27:19;2.47;;;1.30;;
12972;SDS011;6551;51.056;9.466;2023-03-15T14:29:53;2.83;;;1.00;;
12972;SDS011;6551;51.056;9.466;2023-03-15T14:32:33;1.80;;;1.10;;
12972;SDS011;6551;51.056;9.466;2023-03-15T14:37:44;4.70;;;1.00;;
12972;SDS011;6551;51.056;9.466;2023-03-15T14:42:51;5.50;;;1.40;;
12972;SDS011;6551;51.056;9.466;2023-03-15T14:45:18;2.33;;;1.43;;
12972;SDS011;6551;51.056;9.466;2023-03-15T14:47:53;4.83;;;1.53;;
12972;SDS011;6551;51.056;9.466;2023-03-15T14:50:47;8.40;;;1.40;;
12972;SDS011;6551;51.056;9.466;2023-03-15T14:53:14;4.60;;;1.00;;
12972;SDS011;6551;51.056;9.466;2023-03-15T14:55:45;4.63;;;2.07;;
12972;SDS011;6551;51.056;9.466;2023-03-15T14:58:11;4.03;;;1.30;;
12972;SDS011;6551;51.056;9.466;2023-03-15T15:00:43;4.43;;;1.00;;
12972;SDS011;6551;51.056;9.466;2023-03-15T15:03:19;4.20;;;1.57;;
12972;SDS011;6551;51.056;9.466;2023-03-15T15:06:08;6.20;;;1.37;;
12972;SDS011;6551;51.056;9.466;2023-03-15T15:08:38;3.03;;;1.30;;
12972;SDS011;6551;51.056;9.466;2023-03-15T15:11:07;3.13;;;1.40;;
12972;SDS011;6551;51.056;9.466;2023-03-15T15:13:33;5.03;;;1.63;;
12972;SDS011;6551;51.056;9.466;2023-03-15T15:16:01;5.00;;;1.00;;
12972;SDS011;6551;51.056;9.466;2023-03-15T15:18:30;8.90;;;1.73;;
12972;SDS011;6551;51.056;9.466;2023-03-15T15:21:01;5.33;;;1.27;;
12972;SDS011;6551;51.056;9.466;2023-03-15T15:23:38;3.67;;;1.20;;
12972;SDS011;6551;51.056;9.466;2023-03-15T15:26:12;5.17;;;1.60;;
12972;SDS011;6551;51.056;9.466;2023-03-15T15:28:47;7.07;;;1.27;;
12972;SDS011;6551;51.056;9.466;2023-03-15T15:31:15;2.10;;;0.87;;
12972;SDS011;6551;51.056;9.466;2023-03-15T15:33:44;3.20;;;1.20;;
12972;SDS011;6551;51.056;9.466;2023-03-15T15:36:15;5.43;;;1.30;;
12972;SDS011;6551;51.056;9.466;2023-03-15T15:38:47;8.20;;;1.07;;
12972;SDS011;6551;51.056;9.466;2023-03-15T15:41:14;2.83;;;1.43;;
12972;SDS011;6551;51.056;9.466;2023-03-15T15:43:47;5.03;;;0.97;;
12972;SDS011;6551;51.056;9.466;2023-03-15T15:46:14;4.90;;;1.20;;
12972;SDS011;6551;51.056;9.466;2023-03-15T15:48:40;3.00;;;0.93;;
12972;SDS011;6551;51.056;9.466;2023-03-15T15:51:16;5.60;;;1.20;;
12972;SDS011;6551;51.056;9.466;2023-03-15T15:53:57;5.33;;;1.17;;
12972;SDS011;6551;51.056;9.466;2023-03-15T15:56:28;4.37;;;1.10;;
12972;SDS011;6551;51.056;9.466;2023-03-15T15:59:09;4.90;;;1.33;;
12972;SDS011;6551;51.056;9.466;2023-03-15T16:01:40;5.07;;;1.30;;
12972;SDS011;6551;51.056;9.466;2023-03-15T16:04:08;3.67;;;1.03;;
12972;SDS011;6551;51.056;9.466;2023-03-15T16:06:34;5.33;;;1.07;;
12972;SDS011;6551;51.056;9.466;2023-03-15T16:09:01;2.73;;;0.97;;
12972;SDS011;6551;51.056;9.466;2023-03-15T16:11:30;4.90;;;0.87;;
12972;SDS011;6551;51.056;9.466;2023-03-15T16:13:58;4.10;;;1.27;;
12972;SDS011;6551;51.056;9.466;2023-03-15T16:16:26;7.23;;;1.20;;
12972;SDS011;6551;51.056;9.466;2023-03-15T16:18:52;1.83;;;0.73;;
12972;SDS011;6551;51.056;9.466;2023-03-15T16:24:21;2.90;;;1.00;;
12972;SDS011;6551;51.056;9.466;2023-03-15T16:27:05;6.33;;;1.30;;
12972;SDS011;6551;51.056;9.466;2023-03-15T16:29:40;4.03;;;1.77;;
12972;SDS011;6551;51.056;9.466;2023-03-15T16:32:15;6.37;;;2.77;;
12972;SDS011;6551;51.056;9.466;2023-03-15T16:34:46;4.03;;;1.70;;
12972;SDS011;6551;51.056;9.466;2023-03-15T16:37:22;10.27;;;4.57;;
12972;SDS011;6551;51.056;9.466;2023-03-15T16:40:00;6.10;;;3.23;;
12972;SDS011;6551;51.056;9.466;2023-03-15T16:42:27;7.93;;;3.43;;
12972;SDS011;6551;51.056;9.466;2023-03-15T16:44:54;8.23;;;3.47;;
12972;SDS011;6551;51.056;9.466;2023-03-15T16:47:20;4.50;;;2.70;;
12972;SDS011;6551;51.056;9.466;2023-03-15T16:49:47;5.83;;;3.47;;
12972;SDS011;6551;51.056;9.466;2023-03-15T16:52:13;5.23;;;3.20;;
12972;SDS011;6551;51.056;9.466;2023-03-15T16:54:39;4.00;;;2.03;;
12972;SDS011;6551;51.056;9.466;2023-03-15T16:57:15;3.70;;;2.30;;